Time;durP1;ratioP1;P1;durP2;ratioP2;P2;SDS_P1;SDS_P2;PMS_P1;PMS_P2;Temp;Humidity;BMP_temperature;BMP_pressure;BME280_temperature;BME280_humidity;BME280_pressure;Samples;Min_cycle;Max_cycle;Signal;HPM_P1;HPM_P2
2023/04/17 00:01:16;;;;;;;17.88;12.38;;;;;;;8.22;100.00;101444.28;6117143;28;20058;-89
2023/04/17 00:04:20;;;;;;;17.13;11.60;;;;;;;8.20;100.00;101445.22;6124732;28;20379;-89
2023/04/17 00:07:23;;;;;;;18.13;11.85;;;;;;;8.25;100.00;101450.13;6126482;28;20056;-89
2023/04/17 00:10:24;;;;;;;15.90;10.88;;;;;;;8.27;100.00;101447.44;6126263;28;20046;-88
2023/04/17 00:13:26;;;;;;;15.95;10.80;;;;;;;8.18;100.00;101451.38;6121524;28;20047;-87
2023/04/17 00:16:28;;;;;;;17.42;11.10;;;;;;;8.10;100.00;101445.78;6123569;28;20044;-89
2023/04/17 00:19:30;;;;;;;18.55;12.23;;;;;;;8.10;100.00;101450.94;6107073;28;20070;-89
2023/04/17 00:22:32;;;;;;;16.83;11.65;;;;;;;8.13;100.00;101453.38;6116514;28;20804;-89
2023/04/17 00:25:34;;;;;;;17.48;10.95;;;;;;;8.11;100.00;101452.59;6117439;28;20083;-90
2023/04/17 00:28:36;;;;;;;17.63;11.15;;;;;;;8.07;100.00;101449.34;6124303;28;20094;-89
2023/04/17 00:31:37;;;;;;;18.80;12.23;;;;;;;8.01;100.00;101447.09;6128308;28;20101;-89
2023/04/17 00:34:40;;;;;;;18.70;11.77;;;;;;;7.97;100.00;101449.03;6108560;28;20047;-90
2023/04/17 00:37:42;;;;;;;19.80;11.52;;;;;;;7.85;100.00;101451.41;6099808;28;20051;-89
2023/04/17 00:40:44;;;;;;;17.45;11.60;;;;;;;7.75;100.00;101453.63;6119627;28;20056;-89
2023/04/17 00:43:46;;;;;;;17.77;11.93;;;;;;;7.67;100.00;101443.72;6118799;28;20044;-89
2023/04/17 00:46:48;;;;;;;15.68;11.60;;;;;;;7.62;100.00;101448.28;6110520;28;21790;-90
2023/04/17 00:49:50;;;;;;;18.40;11.55;;;;;;;7.70;100.00;101451.31;6127061;28;20047;-90
2023/04/17 00:52:52;;;;;;;18.35;11.63;;;;;;;7.60;100.00;101451.84;6116222;28;20051;-90
2023/04/17 00:55:56;;;;;;;17.33;12.00;;;;;;;7.49;100.00;101442.94;6115220;28;20147;-89
2023/04/17 00:58:59;;;;;;;17.30;11.38;;;;;;;7.45;100.00;101446.59;6095706;28;20483;-89
2023/04/17 01:02:00;;;;;;;19.52;11.95;;;;;;;7.49;100.00;101452.41;6118886;28;20040;-90
2023/04/17 01:05:03;;;;;;;16.30;11.23;;;;;;;7.40;100.00;101447.72;6109058;29;20545;-89
2023/04/17 01:08:05;;;;;;;15.75;10.65;;;;;;;7.38;100.00;101457.25;6123171;28;20056;-90
2023/04/17 01:11:08;;;;;;;18.33;11.32;;;;;;;7.37;100.00;101445.31;6105005;28;20051;-89
2023/04/17 01:14:10;;;;;;;16.98;11.38;;;;;;;7.31;100.00;101447.28;6102696;28;20054;-88
2023/04/17 01:17:18;;;;;;;17.25;12.10;;;;;;;7.30;100.00;101452.50;6118722;28;20549;-88
2023/04/17 01:20:24;;;;;;;15.35;11.18;;;;;;;7.33;100.00;101458.34;6100241;28;20218;-88
2023/04/17 01:23:27;;;;;;;18.58;12.38;;;;;;;7.36;100.00;101457.34;6116224;28;20575;-89
2023/04/17 01:26:31;;;;;;;18.10;11.88;;;;;;;7.32;100.00;101459.22;6108652;28;20055;-88
2023/04/17 01:29:34;;;;;;;18.45;11.98;;;;;;;7.25;100.00;101457.88;6122787;28;20043;-88
2023/04/17 01:32:36;;;;;;;19.73;12.10;;;;;;;7.27;100.00;101465.53;6098563;28;20052;-89
2023/04/17 01:35:37;;;;;;;18.50;11.73;;;;;;;7.29;100.00;101459.41;6085043;29;20050;-88
2023/04/17 01:38:40;;;;;;;18.50;12.07;;;;;;;7.20;100.00;101464.16;6132112;28;20502;-89
2023/04/17 01:41:42;;;;;;;19.48;12.02;;;;;;;7.23;100.00;101459.72;6113105;28;20185;-88
2023/04/17 01:44:43;;;;;;;19.15;12.52;;;;;;;7.20;100.00;101464.16;6113396;28;20501;-88
2023/04/17 01:47:46;;;;;;;19.00;11.38;;;;;;;7.18;100.00;101472.00;6096555;28;20052;-88
2023/04/17 01:50:48;;;;;;;17.45;12.07;;;;;;;7.19;100.00;101465.09;6109448;28;20134;-88
2023/04/17 01:53:49;;;;;;;17.65;11.70;;;;;;;7.14;100.00;101472.22;6097336;28;20043;-89
2023/04/17 01:56:52;;;;;;;18.63;11.57;;;;;;;7.05;100.00;101473.47;6117616;28;20050;-88
2023/04/17 01:59:55;;;;;;;16.67;11.80;;;;;;;7.01;100.00;101477.13;6094324;28;20047;-88
2023/04/17 02:02:57;;;;;;;15.52;11.75;;;;;;;6.98;100.00;101477.25;6098138;29;20056;-88
2023/04/17 02:05:59;;;;;;;16.20;11.77;;;;;;;6.96;100.00;101479.94;6127198;28;20043;-88
2023/04/17 02:09:01;;;;;;;19.10;12.30;;;;;;;6.92;100.00;101483.53;6097581;28;20106;-88
2023/04/17 02:12:02;;;;;;;19.17;12.00;;;;;;;6.88;100.00;101487.16;6103479;28;20055;-87
2023/04/17 02:15:05;;;;;;;21.42;12.25;;;;;;;6.87;100.00;101485.50;6106077;28;20502;-88
2023/04/17 02:18:08;;;;;;;18.42;11.65;;;;;;;6.85;100.00;101487.31;6106324;28;20051;-88
2023/04/17 02:21:10;;;;;;;17.95;10.73;;;;;;;6.84;100.00;101490.81;6120999;28;20055;-88
2023/04/17 02:24:12;;;;;;;18.90;12.88;;;;;;;6.86;100.00;101489.81;6109342;28;20699;-89
2023/04/17 02:27:14;;;;;;;20.45;12.48;;;;;;;6.87;100.00;101494.06;6120858;28;20105;-88
2023/04/17 02:30:17;;;;;;;17.60;12.48;;;;;;;6.84;100.00;101490.81;6098616;28;20573;-88
2023/04/17 02:33:19;;;;;;;16.35;11.75;;;;;;;6.85;100.00;101489.88;6119437;28;20059;-88
2023/04/17 02:36:21;;;;;;;18.20;11.02;;;;;;;6.79;100.00;101485.88;6119512;28;20058;-88
2023/04/17 02:39:24;;;;;;;15.80;11.55;;;;;;;6.76;100.00;101486.03;6112816;28;20414;-88
2023/04/17 02:42:26;;;;;;;23.67;11.50;;;;;;;6.80;100.00;101478.97;6114291;28;20525;-88
2023/04/17 02:45:27;;;;;;;21.23;12.80;;;;;;;6.72;100.00;101492.22;6124921;28;20032;-88
2023/04/17 02:48:29;;;;;;;18.80;12.15;;;;;;;6.71;100.00;101490.56;6103652;28;20126;-87
2023/04/17 02:51:32;;;;;;;19.23;12.30;;;;;;;6.79;100.00;101492.78;6105251;28;20055;-88
2023/04/17 02:54:34;;;;;;;21.30;13.40;;;;;;;6.79;100.00;101488.44;6116199;28;20055;-88
2023/04/17 02:57:36;;;;;;;20.50;12.98;;;;;;;6.77;100.00;101485.09;6102285;28;20174;-88
2023/04/17 03:00:38;;;;;;;18.55;12.30;;;;;;;6.72;100.00;101486.25;6107739;28;20577;-88
2023/04/17 03:03:43;;;;;;;20.90;11.80;;;;;;;6.67;100.00;101489.03;6105031;28;20055;-88
2023/04/17 03:06:48;;;;;;;18.88;12.18;;;;;;;6.69;100.00;101487.22;6109451;28;20078;-88
2023/04/17 03:09:52;;;;;;;19.52;12.30;;;;;;;6.64;100.00;101494.31;6112079;28;20075;-88
2023/04/17 03:12:54;;;;;;;17.17;11.77;;;;;;;6.60;100.00;101492.78;6138552;28;20510;-88
2023/04/17 03:15:57;;;;;;;16.70;11.05;;;;;;;6.61;100.00;101492.72;6120517;28;20051;-88
2023/04/17 03:19:02;;;;;;;19.88;12.18;;;;;;;6.64;100.00;101495.16;6114490;28;20122;-88
2023/04/17 03:22:04;;;;;;;16.40;11.68;;;;;;;6.57;100.00;101493.78;6119987;28;20650;-88
2023/04/17 03:25:06;;;;;;;17.33;11.20;;;;;;;6.58;100.00;101499.75;6121523;28;20272;-88
2023/04/17 03:28:22;;;;;;;16.98;12.05;;;;;;;6.57;100.00;101496.34;6114223;28;20070;-88
2023/04/17 03:31:26;;;;;;;17.23;11.45;;;;;;;6.55;100.00;101503.28;6114056;28;20138;-88
2023/04/17 03:34:28;;;;;;;18.63;12.50;;;;;;;6.55;100.00;101512.75;6104187;28;20035;-87
2023/04/17 03:37:31;;;;;;;17.27;11.60;;;;;;;6.54;100.00;101514.50;6108974;28;20150;-88
2023/04/17 03:40:33;;;;;;;18.55;11.43;;;;;;;6.46;100.00;101520.00;6128632;28;20047;-88
2023/04/17 03:43:35;;;;;;;18.33;11.95;;;;;;;6.43;100.00;101516.72;6095317;28;20534;-88
2023/04/17 03:46:37;;;;;;;17.55;10.88;;;;;;;6.37;100.00;101527.28;6112438;28;20043;-87
2023/04/17 03:49:39;;;;;;;16.13;11.65;;;;;;;6.36;100.00;101520.47;6127529;28;20044;-87
2023/04/17 03:52:42;;;;;;;18.02;11.65;;;;;;;6.34;100.00;101522.28;6101531;28;20063;-88
2023/04/17 03:55:43;;;;;;;17.30;11.48;;;;;;;6.34;100.00;101520.56;6101935;29;20079;-87
2023/04/17 03:58:56;;;;;;;20.00;12.50;;;;;;;6.36;100.00;101528.19;6101456;29;20055;-88
2023/04/17 04:01:58;;;;;;;18.05;11.75;;;;;;;6.37;100.00;101527.28;6103379;28;20039;-87
2023/04/17 04:05:02;;;;;;;17.10;11.43;;;;;;;6.36;100.00;101525.59;6101248;28;20067;-87
2023/04/17 04:08:04;;;;;;;15.98;11.10;;;;;;;6.33;100.00;101525.75;6102972;28;20131;-87
2023/04/17 04:11:15;;;;;;;18.00;11.68;;;;;;;6.28;100.00;101527.69;6104988;28;20410;-87
2023/04/17 04:14:17;;;;;;;17.83;11.88;;;;;;;6.25;100.00;101536.38;6119723;28;20512;-88
2023/04/17 04:17:21;;;;;;;17.35;11.90;;;;;;;6.23;100.00;101531.28;6111340;28;20044;-87
2023/04/17 04:20:23;;;;;;;16.75;11.50;;;;;;;6.20;100.00;101531.44;6122808;28;20104;-87
2023/04/17 04:23:33;;;;;;;19.90;11.35;;;;;;;6.20;100.00;101536.59;6101809;28;20147;-87
2023/04/17 04:26:36;;;;;;;16.48;10.95;;;;;;;6.19;100.00;101540.06;6101424;28;20529;-87
2023/04/17 04:29:39;;;;;;;17.25;11.52;;;;;;;6.18;100.00;101542.69;6125865;28;20040;-87
2023/04/17 04:32:46;;;;;;;16.75;10.20;;;;;;;6.14;100.00;101544.56;6102699;28;20898;-87
2023/04/17 04:35:50;;;;;;;18.15;11.32;;;;;;;6.11;100.00;101546.44;6105059;28;20048;-87
2023/04/17 04:38:52;;;;;;;19.83;12.40;;;;;;;6.09;100.00;101556.81;6108879;29;20047;-87
2023/04/17 04:42:04;;;;;;;22.23;12.50;;;;;;;6.10;100.00;101547.34;6101785;28;20062;-87
2023/04/17 04:45:19;;;;;;;14.77;11.02;;;;;;;6.11;100.00;101554.13;6101022;29;20296;-88
2023/04/17 04:48:22;;;;;;;20.90;13.70;;;;;;;6.19;100.00;101554.66;6102263;28;20048;-87
2023/04/17 04:51:25;;;;;;;18.30;12.68;;;;;;;6.12;100.00;101553.25;6108978;28;20063;-87
2023/04/17 04:54:31;;;;;;;17.92;11.73;;;;;;;6.12;100.00;101558.41;6100691;28;20047;-87
2023/04/17 04:57:35;;;;;;;21.58;12.13;;;;;;;6.22;100.00;101560.50;6105763;28;20500;-87
2023/04/17 05:00:37;;;;;;;19.15;12.35;;;;;;;6.25;100.00;101562.91;6124500;28;20495;-87
2023/04/17 05:03:39;;;;;;;18.85;11.77;;;;;;;6.27;100.00;101568.00;6108106;28;20688;-87
2023/04/17 05:06:43;;;;;;;18.10;12.13;;;;;;;6.27;100.00;101568.00;6106769;28;20088;-87
2023/04/17 05:09:46;;;;;;;18.65;12.48;;;;;;;6.33;100.00;101566.91;6103293;28;20067;-88
2023/04/17 05:12:50;;;;;;;17.45;11.63;;;;;;;6.35;100.00;101572.81;6128145;28;20056;-87
2023/04/17 05:15:52;;;;;;;22.20;13.40;;;;;;;6.41;100.00;101575.94;6107297;28;20047;-87
2023/04/17 05:18:59;;;;;;;20.63;12.77;;;;;;;6.48;100.00;101584.19;6120385;28;20040;-87
2023/04/17 05:22:39;;;;;;;17.38;12.02;;;;;;;6.52;100.00;101590.06;6058684;29;20088;-87
2023/04/17 05:25:45;;;;;;;17.15;11.05;;;;;;;6.59;100.00;101591.47;6027902;29;20053;-87
2023/04/17 05:28:48;;;;;;;17.40;12.63;;;;;;;6.66;100.00;101591.09;6064841;29;20823;-87
2023/04/17 05:31:55;;;;;;;20.52;11.77;;;;;;;6.73;100.00;101589.06;6062800;29;20146;-88
2023/04/17 05:35:16;;;;;;;19.10;11.40;;;;;;;6.76;100.00;101594.09;6065534;29;20535;-87
2023/04/17 05:38:18;;;;;;;17.83;11.13;;;;;;;6.82;100.00;101605.84;6068366;29;20607;-88
2023/04/17 05:41:20;;;;;;;17.30;11.90;;;;;;;6.90;100.00;101603.75;6065092;29;20461;-88
2023/04/17 05:44:22;;;;;;;18.70;11.90;;;;;;;6.97;100.00;101604.31;6063788;29;20077;-87
2023/04/17 05:47:24;;;;;;;22.10;12.45;;;;;;;7.04;100.00;101597.97;6049761;29;20052;-87
2023/04/17 05:50:27;;;;;;;15.98;12.10;;;;;;;7.07;100.00;101601.22;6064326;29;20076;-87
2023/04/17 05:53:30;;;;;;;18.77;11.93;;;;;;;7.19;100.00;101607.53;6094319;28;20056;-88
2023/04/17 05:56:32;;;;;;;18.08;12.68;;;;;;;7.28;100.00;101607.13;6101785;28;20106;-88
2023/04/17 05:59:35;;;;;;;19.83;12.63;;;;;;;7.37;100.00;101607.56;6093860;28;20062;-88
2023/04/17 06:02:41;;;;;;;21.05;12.50;;;;;;;7.46;100.00;101605.38;6098781;28;20047;-88
2023/04/17 06:05:49;;;;;;;18.02;11.35;;;;;;;7.54;100.00;101618.72;6100062;28;20063;-87
2023/04/17 06:08:51;;;;;;;16.15;11.50;;;;;;;7.64;100.00;101607.97;6116001;28;20047;-87
2023/04/17 06:11:55;;;;;;;16.60;10.57;;;;;;;7.77;100.00;101606.44;6100852;28;20495;-87
2023/04/17 06:14:57;;;;;;;20.88;12.23;;;;;;;7.86;100.00;101615.47;6107016;28;20039;-87
2023/04/17 06:17:59;;;;;;;17.40;11.40;;;;;;;7.86;100.00;101616.31;6109250;28;20066;-88
2023/04/17 06:21:01;;;;;;;17.95;11.38;;;;;;;7.94;100.00;101623.66;6115896;28;20043;-87
2023/04/17 06:24:03;;;;;;;20.55;11.95;;;;;;;8.01;100.00;101619.03;6102471;28;20055;-88
2023/04/17 06:27:05;;;;;;;16.83;10.18;;;;;;;8.13;100.00;101623.56;6124988;28;20044;-88
2023/04/17 06:30:07;;;;;;;16.60;11.88;;;;;;;8.27;100.00;101620.25;6118033;28;20570;-88
2023/04/17 06:33:21;;;;;;;19.23;12.07;;;;;;;8.40;100.00;101623.91;6125278;28;20074;-88
2023/04/17 06:36:27;;;;;;;18.48;11.18;;;;;;;8.49;100.00;101628.56;6125403;28;20051;-88
2023/04/17 06:39:32;;;;;;;16.83;11.30;;;;;;;8.63;100.00;101625.28;6110471;28;20051;-88
2023/04/17 06:42:35;;;;;;;17.02;10.80;;;;;;;8.75;100.00;101629.78;6107533;28;20195;-87
2023/04/17 06:45:41;;;;;;;17.70;11.95;;;;;;;8.84;100.00;101631.03;6101321;29;20186;-88
2023/04/17 06:48:42;;;;;;;21.15;13.93;;;;;;;8.95;100.00;101631.31;6108144;28;20621;-88
2023/04/17 06:51:46;;;;;;;19.05;12.73;;;;;;;9.08;100.00;101634.03;6108324;28;20047;-88
2023/04/17 06:54:47;;;;;;;20.70;12.50;;;;;;;9.12;100.00;101637.28;6124508;28;20069;-88
2023/04/17 06:57:49;;;;;;;18.65;11.73;;;;;;;9.15;100.00;101645.72;6122167;28;20052;-88
2023/04/17 07:00:51;;;;;;;18.65;11.60;;;;;;;9.21;100.00;101640.19;6121901;28;20438;-88
2023/04/17 07:03:53;;;;;;;17.02;11.05;;;;;;;9.31;100.00;101644.84;6119930;28;20443;-87
2023/04/17 07:06:55;;;;;;;17.75;10.95;;;;;;;9.30;100.00;101645.78;6126697;28;20602;-88
2023/04/17 07:09:57;;;;;;;22.95;11.90;;;;;;;9.38;100.00;101635.84;6101705;28;20067;-87
2023/04/17 07:12:58;;;;;;;18.88;12.20;;;;;;;9.45;100.00;101647.50;6122834;28;20554;-88
2023/04/17 07:16:00;;;;;;;16.33;10.75;;;;;;;9.46;100.00;101654.31;6129784;28;20052;-88
2023/04/17 07:19:02;;;;;;;18.77;11.60;;;;;;;9.43;100.00;101650.16;6130078;28;20505;-88
2023/04/17 07:22:04;;;;;;;17.58;10.70;;;;;;;9.44;100.00;101651.00;6103580;29;20490;-88
2023/04/17 07:25:06;;;;;;;16.10;11.10;;;;;;;9.42;100.00;101660.59;6119928;28;20059;-88
2023/04/17 07:28:08;;;;;;;17.70;11.32;;;;;;;9.35;100.00;101656.69;6129497;28;20043;-87
2023/04/17 07:31:10;;;;;;;17.30;11.63;;;;;;;9.23;100.00;101659.03;6128499;28;20758;-88
2023/04/17 07:34:12;;;;;;;19.50;11.48;;;;;;;9.20;100.00;101664.38;6119454;28;20054;-88
2023/04/17 07:37:14;;;;;;;22.33;13.10;;;;;;;9.22;100.00;101667.69;6129439;28;20052;-87
2023/04/17 07:40:16;;;;;;;19.92;11.70;;;;;;;9.22;100.00;101667.69;6132187;28;20082;-87
2023/04/17 07:43:18;;;;;;;18.08;11.40;;;;;;;9.21;100.00;101665.19;6121878;28;20048;-87
2023/04/17 07:46:20;;;;;;;18.50;11.20;;;;;;;9.10;100.00;101660.63;6119640;28;20196;-87
2023/04/17 07:49:22;;;;;;;17.17;11.60;;;;;;;9.17;100.00;101667.13;6129199;28;20070;-87
2023/04/17 07:52:24;;;;;;;16.05;11.60;;;;;;;9.11;100.00;101664.03;6132794;28;20047;-88
2023/04/17 07:55:26;;;;;;;18.88;11.50;;;;;;;9.02;100.00;101665.38;6129890;28;20058;-88
2023/04/17 07:58:27;;;;;;;18.33;11.20;;;;;;;9.03;100.00;101660.13;6135715;28;20063;-88
2023/04/17 08:01:30;;;;;;;16.67;10.95;;;;;;;9.03;100.00;101664.47;6126818;28;20082;-88
2023/04/17 08:04:33;;;;;;;17.48;10.98;;;;;;;9.03;100.00;101669.63;6123450;28;20071;-88
2023/04/17 08:07:36;;;;;;;17.38;10.93;;;;;;;9.02;100.00;101666.22;6108833;28;20048;-88
2023/04/17 08:10:38;;;;;;;19.85;11.45;;;;;;;9.10;100.00;101670.13;6123878;28;20078;-88
2023/04/17 08:13:40;;;;;;;16.05;10.93;;;;;;;9.16;100.00;101665.44;6124986;28;20521;-88
2023/04/17 08:16:42;;;;;;;18.10;12.02;;;;;;;9.12;100.00;101668.28;6124555;28;20426;-88
2023/04/17 08:19:44;;;;;;;15.15;10.93;;;;;;;9.10;100.00;101670.97;6123982;28;20509;-88
2023/04/17 08:22:46;;;;;;;16.90;10.52;;;;;;;9.09;100.00;101673.59;6101494;28;20071;-88
2023/04/17 08:25:47;;;;;;;17.17;10.32;;;;;;;9.12;100.00;101674.28;6125258;28;20047;-88
2023/04/17 08:28:49;;;;;;;15.43;9.88;;;;;;;9.30;100.00;101679.38;6123752;28;20569;-88
2023/04/17 08:31:51;;;;;;;14.40;9.95;;;;;;;9.37;100.00;101678.13;6118662;28;20047;-88
2023/04/17 08:35:13;;;;;;;14.77;9.80;;;;;;;9.47;100.00;101672.34;6117768;28;20414;-88
2023/04/17 08:38:14;;;;;;;17.92;9.80;;;;;;;9.55;100.00;101679.66;6129239;28;20168;-89
2023/04/17 08:41:20;;;;;;;13.27;9.88;;;;;;;9.58;100.00;101683.84;6125418;28;20047;-88
2023/04/17 08:44:24;;;;;;;16.05;10.48;;;;;;;9.61;100.00;101674.13;6108518;28;20075;-88
2023/04/17 08:47:26;;;;;;;17.33;11.15;;;;;;;9.71;100.00;101674.44;6125596;28;20283;-88
2023/04/17 08:50:28;;;;;;;19.38;10.02;;;;;;;9.88;100.00;101678.66;6131203;28;20126;-88
2023/04/17 08:53:30;;;;;;;21.13;11.20;;;;;;;10.07;100.00;101675.84;6102346;28;20529;-88
2023/04/17 08:56:33;;;;;;;17.02;10.15;;;;;;;10.33;100.00;101684.69;6118502;28;20043;-88
2023/04/17 08:59:35;;;;;;;14.18;9.18;;;;;;;10.27;100.00;101682.44;6117705;28;20485;-88
2023/04/17 09:02:56;;;;;;;15.55;9.95;;;;;;;10.22;100.00;101674.13;6120691;28;20098;-88
2023/04/17 09:05:58;;;;;;;15.65;9.85;;;;;;;10.26;100.00;101679.03;6117309;28;20055;-88
2023/04/17 09:09:00;;;;;;;15.93;10.13;;;;;;;10.43;100.00;101675.44;6124494;28;20049;-88
2023/04/17 09:12:09;;;;;;;16.02;10.02;;;;;;;10.53;100.00;101684.34;6127564;28;20223;-87
2023/04/17 09:15:15;;;;;;;14.30;9.23;;;;;;;10.60;100.00;101692.56;6121857;28;20054;-88
2023/04/17 09:18:34;;;;;;;15.45;8.60;;;;;;;10.75;100.00;101676.09;6102273;28;20056;-88
2023/04/17 09:21:36;;;;;;;12.50;8.23;;;;;;;10.96;100.00;101686.09;6128781;28;20043;-88
2023/04/17 09:24:38;;;;;;;13.60;9.23;;;;;;;11.08;100.00;101681.88;6112266;28;20035;-88
2023/04/17 09:27:39;;;;;;;12.55;8.70;;;;;;;11.17;100.00;101678.72;6118448;28;20050;-88
2023/04/17 09:30:42;;;;;;;16.42;9.30;;;;;;;11.27;100.00;101674.59;6115348;28;20047;-87
2023/04/17 09:33:57;;;;;;;15.05;9.05;;;;;;;11.55;100.00;101681.47;6118071;28;20414;-88
2023/04/17 09:36:59;;;;;;;10.30;7.63;;;;;;;11.85;100.00;101683.81;6099472;28;20126;-88
2023/04/17 09:40:07;;;;;;;15.48;8.15;;;;;;;12.02;100.00;101681.91;6126541;28;20858;-88
2023/04/17 09:43:10;;;;;;;10.40;8.07;;;;;;;12.21;100.00;101681.50;6118196;28;20115;-88
2023/04/17 09:46:13;;;;;;;12.93;7.97;;;;;;;12.50;100.00;101687.31;6119682;28;20035;-88
2023/04/17 09:49:24;;;;;;;9.55;7.20;;;;;;;12.83;100.00;101685.94;6124482;28;20391;-88
2023/04/17 09:52:27;;;;;;;10.30;7.28;;;;;;;13.13;100.00;101691.56;6115115;28;20047;-88
2023/04/17 09:55:36;;;;;;;11.55;7.20;;;;;;;13.28;100.00;101691.44;6098215;28;20047;-88
2023/04/17 09:58:40;;;;;;;13.00;7.55;;;;;;;13.44;100.00;101692.00;6116958;28;20553;-88
2023/04/17 10:01:42;;;;;;;10.00;7.72;;;;;;;13.54;100.00;101686.97;6117025;28;20048;-88
2023/04/17 10:04:45;;;;;;;10.57;7.38;;;;;;;13.68;100.00;101681.56;6117846;28;20043;-88
2023/04/17 10:07:47;;;;;;;9.52;6.78;;;;;;;13.71;100.00;101688.31;6103354;28;20092;-88
2023/04/17 10:10:51;;;;;;;9.05;6.82;;;;;;;13.90;100.00;101677.38;6125132;28;20050;-88
2023/04/17 10:14:05;;;;;;;11.93;7.28;;;;;;;14.30;100.00;101677.78;6125242;28;20047;-88
2023/04/17 10:17:33;;;;;;;9.20;6.97;;;;;;;14.71;95.05;101681.63;6132367;28;20133;-89
2023/04/17 10:20:37;;;;;;;8.52;6.90;;;;;;;14.93;99.94;101680.78;6117475;28;20074;-87
2023/04/17 10:23:39;;;;;;;8.73;6.63;;;;;;;15.06;92.68;101680.63;6123924;28;20054;-88
2023/04/17 10:26:41;;;;;;;9.80;6.30;;;;;;;14.92;85.32;101671.28;6131846;28;20043;-88
2023/04/17 10:29:52;;;;;;;10.27;6.60;;;;;;;15.25;90.76;101669.53;6109024;28;20418;-89
2023/04/17 10:33:18;;;;;;;10.88;6.32;;;;;;;15.33;88.90;101671.53;6126793;28;20454;-88
2023/04/17 10:36:36;;;;;;;10.73;7.22;;;;;;;15.18;87.58;101678.81;6123263;28;20044;-87
2023/04/17 10:40:07;;;;;;;8.70;6.30;;;;;;;14.79;89.44;101662.78;6114641;28;20459;-86
2023/04/17 10:43:25;;;;;;;9.57;6.07;;;;;;;14.69;97.49;101657.47;6104561;28;20409;-89
2023/04/17 10:46:28;;;;;;;12.77;6.85;;;;;;;14.38;92.12;101661.56;6115484;28;20048;-89
2023/04/17 10:49:57;;;;;;;15.65;7.00;;;;;;;14.34;96.05;101658.38;6128586;28;20047;-88
2023/04/17 10:52:59;;;;;;;9.80;6.63;;;;;;;14.50;99.46;101654.59;6118564;28;20055;-88
2023/04/17 10:56:02;;;;;;;10.45;6.72;;;;;;;14.76;97.25;101656.03;6117338;28;20040;-88
2023/04/17 10:59:06;;;;;;;9.18;6.82;;;;;;;14.93;96.40;101652.09;6117756;28;20482;-88
2023/04/17 11:02:07;;;;;;;10.88;6.35;;;;;;;15.07;95.89;101649.19;6121987;28;20138;-88
2023/04/17 11:05:10;;;;;;;9.63;6.55;;;;;;;15.11;95.14;101652.41;6119227;28;20036;-88
2023/04/17 11:08:13;;;;;;;11.02;7.10;;;;;;;15.15;100.00;101635.53;6121921;28;20601;-87
2023/04/17 11:11:17;;;;;;;10.57;7.53;;;;;;;15.17;100.00;101638.03;6123531;28;20051;-88
2023/04/17 11:14:39;;;;;;;12.75;7.32;;;;;;;15.34;99.74;101642.72;6115353;28;20059;-90
2023/04/17 11:17:47;;;;;;;9.95;6.82;;;;;;;15.67;100.00;101638.28;6099519;28;20055;-90
2023/04/17 11:20:49;;;;;;;10.60;7.15;;;;;;;15.72;100.00;101641.38;6120365;28;20050;-90
2023/04/17 11:23:51;;;;;;;12.30;6.75;;;;;;;15.84;93.96;101636.94;6136615;28;20477;-90
2023/04/17 11:26:55;;;;;;;10.05;6.50;;;;;;;15.92;94.16;101645.78;6102178;28;20371;-89
2023/04/17 11:29:56;;;;;;;13.40;6.40;;;;;;;15.68;96.14;101634.75;6124704;28;20494;-89
2023/04/17 11:33:01;;;;;;;9.90;6.03;;;;;;;15.63;94.47;101645.56;6129156;28;20399;-89
2023/04/17 11:36:05;;;;;;;9.75;6.15;;;;;;;15.32;87.63;101647.22;6131344;28;20131;-88
2023/04/17 11:39:07;;;;;;;12.02;5.97;;;;;;;15.48;90.13;101645.03;6128941;28;20043;-88
2023/04/17 11:42:09;;;;;;;10.13;6.28;;;;;;;15.63;86.06;101640.34;6131862;28;20050;-88
2023/04/17 11:45:11;;;;;;;7.28;5.85;;;;;;;15.76;83.84;101652.41;6133058;28;20035;-88
2023/04/17 11:48:15;;;;;;;9.55;5.75;;;;;;;15.85;85.50;101641.19;6125595;28;20094;-88
2023/04/17 11:51:17;;;;;;;11.70;6.03;;;;;;;15.80;84.52;101641.59;6115762;28;20102;-88
2023/04/17 11:54:49;;;;;;;9.52;5.70;;;;;;;16.04;87.67;101646.53;6129120;28;20058;-89
2023/04/17 11:57:53;;;;;;;10.75;5.80;;;;;;;16.35;86.54;101649.16;6060536;29;20739;-89
2023/04/17 12:01:05;;;;;;;9.73;5.75;;;;;;;15.90;81.72;101639.88;6062304;29;20114;-88
2023/04/17 12:04:19;;;;;;;8.70;5.93;;;;;;;16.30;83.80;101630.44;6060112;29;20053;-89
2023/04/17 12:07:23;;;;;;;8.90;5.68;;;;;;;16.71;84.68;101632.06;6061315;29;20071;-89
2023/04/17 12:10:44;;;;;;;7.50;5.65;;;;;;;16.85;91.22;101630.91;6058912;29;20105;-89
2023/04/17 12:13:46;;;;;;;;;;;;;;;16.87;88.51;101629.00;6059285;29;20056;-89
2023/04/17 12:16:49;;;;;;;7.85;5.82;;;;;;;16.79;83.39;101628.81;6056067;29;19931;-90
2023/04/17 12:19:52;;;;;;;8.00;5.85;;;;;;;16.07;81.77;101632.38;6058634;29;20044;-89
2023/04/17 12:22:53;;;;;;;10.45;6.25;;;;;;;16.01;85.92;101632.91;6063252;29;20052;-89
2023/04/17 12:25:55;;;;;;;7.03;5.53;;;;;;;16.06;88.29;101626.34;6060271;29;20252;-89
2023/04/17 12:28:57;;;;;;;8.82;6.28;;;;;;;16.37;89.77;101626.31;6060212;29;20052;-89
2023/04/17 12:32:00;;;;;;;9.93;5.75;;;;;;;16.78;93.16;101619.31;6057310;29;20077;-89
2023/04/17 12:35:02;;;;;;;8.60;6.03;;;;;;;16.94;80.41;101619.63;6114021;28;20140;-89
2023/04/17 12:38:04;;;;;;;8.05;6.03;;;;;;;16.87;83.66;101617.69;6125970;28;20110;-89
2023/04/17 12:41:06;;;;;;;8.50;5.30;;;;;;;16.64;78.60;101611.81;6128506;28;20422;-90
2023/04/17 12:44:08;;;;;;;7.57;5.38;;;;;;;16.44;83.84;101603.09;6128335;28;20837;-89
2023/04/17 12:47:10;;;;;;;9.75;5.93;;;;;;;16.23;81.26;101603.19;6129934;28;20117;-88
2023/04/17 12:50:12;;;;;;;8.70;6.15;;;;;;;16.68;87.31;101603.59;6126478;28;20436;-88
2023/04/17 12:53:14;;;;;;;8.20;5.53;;;;;;;17.11;82.00;101604.22;6127859;28;20039;-88
2023/04/17 12:56:16;;;;;;;8.95;5.97;;;;;;;17.19;81.60;101605.19;6128520;28;20059;-88
2023/04/17 12:59:18;;;;;;;12.13;6.28;;;;;;;16.89;84.34;101605.28;6113944;28;20540;-89
2023/04/17 13:02:22;;;;;;;8.32;6.00;;;;;;;16.29;81.07;101594.81;6121993;28;20140;-88
2023/04/17 13:05:25;;;;;;;10.77;6.00;;;;;;;16.31;88.80;101595.50;6126569;28;20074;-89
2023/04/17 13:08:29;;;;;;;7.00;5.28;;;;;;;16.92;94.95;101590.19;6125268;28;20043;-89
2023/04/17 13:11:31;;;;;;;8.88;5.90;;;;;;;17.50;91.30;101583.25;6107936;28;20046;-89
2023/04/17 13:14:33;;;;;;;9.48;6.10;;;;;;;18.06;81.15;101590.28;6108869;28;20063;-90
2023/04/17 13:17:35;;;;;;;9.07;6.38;;;;;;;18.49;71.41;101581.00;6126223;28;20059;-90
2023/04/17 13:20:37;;;;;;;8.85;6.18;;;;;;;18.60;70.66;101585.19;6110441;29;20122;-89
2023/04/17 13:23:39;;;;;;;8.00;6.05;;;;;;;18.71;66.61;101588.44;6107220;29;20076;-89
2023/04/17 13:26:41;;;;;;;10.55;6.28;;;;;;;18.80;65.55;101580.69;6107963;28;20489;-89
2023/04/17 13:29:43;;;;;;;9.05;6.82;;;;;;;18.59;66.31;101579.13;6125387;28;20580;-90
2023/04/17 13:32:45;;;;;;;7.18;5.75;;;;;;;17.97;69.44;101580.69;6125271;28;20571;-89
2023/04/17 13:35:49;;;;;;;5.97;5.30;;;;;;;17.50;70.34;101584.09;6130595;28;20497;-89
2023/04/17 13:38:52;;;;;;;10.98;5.47;;;;;;;16.88;81.79;101578.31;6125580;28;20048;-89
2023/04/17 13:41:56;;;;;;;6.97;5.78;;;;;;;16.44;79.10;101564.72;6103703;28;20052;-89
2023/04/17 13:44:57;;;;;;;13.05;6.50;;;;;;;16.46;86.45;101564.59;6127227;28;20053;-89
2023/04/17 13:47:59;;;;;;;8.65;5.65;;;;;;;17.14;81.35;101562.06;6126692;28;20051;-89
2023/04/17 13:51:02;;;;;;;7.65;5.47;;;;;;;17.26;74.25;101560.13;6133041;28;20047;-89
2023/04/17 13:54:04;;;;;;;7.47;5.10;;;;;;;17.63;71.27;101549.72;6121591;28;20043;-89
2023/04/17 13:57:07;;;;;;;9.00;5.65;;;;;;;17.98;73.61;101558.75;6125154;28;20040;-90
2023/04/17 14:00:09;;;;;;;8.52;5.97;;;;;;;18.30;68.80;101542.59;6103865;28;20056;-89